Time;durP1;ratioP1;P1;durP2;ratioP2;P2;SDS_P1;SDS_P2;PMS_P1;PMS_P2;Temp;Humidity;BMP_temperature;BMP_pressure;BME280_temperature;BME280_humidity;BME280_pressure;Samples;Min_cycle;Max_cycle;Signal;HPM_P1;HPM_P2
2023/07/31 00:00:27;;;;;;;0.60;0.60;;;11.60;99.90;;;;;;5074557;28;20193;-74
2023/07/31 00:02:54;;;;;;;1.20;1.15;;;11.60;99.90;;;;;;5074681;28;20197;-74
2023/07/31 00:05:20;;;;;;;0.52;0.52;;;11.70;99.90;;;;;;5074051;28;20565;-74
2023/07/31 00:07:46;;;;;;;0.60;0.60;;;11.70;99.90;;;;;;5073349;28;20193;-74
2023/07/31 00:10:12;;;;;;;0.75;0.75;;;11.70;99.90;;;;;;5073182;28;20612;-74
2023/07/31 00:12:43;;;;;;;0.50;0.50;;;11.70;99.90;;;;;;5074232;28;21022;-74
2023/07/31 00:15:09;;;;;;;0.50;0.50;;;11.80;99.90;;;;;;5074275;28;20216;-74
2023/07/31 00:17:35;;;;;;;0.60;0.60;;;11.80;99.90;;;;;;5074505;28;20189;-74
2023/07/31 00:20:02;;;;;;;0.50;0.50;;;11.80;99.90;;;;;;5074325;28;20612;-74
2023/07/31 00:22:27;;;;;;;0.70;0.70;;;11.90;99.90;;;;;;5056372;28;20283;-74
2023/07/31 00:24:53;;;;;;;0.50;0.50;;;11.90;99.90;;;;;;5056274;28;20307;-74
2023/07/31 00:27:19;;;;;;;1.08;1.08;;;11.90;99.90;;;;;;5056226;28;20232;-74
2023/07/31 00:29:45;;;;;;;0.50;0.50;;;11.90;99.90;;;;;;5056474;28;20231;-74
2023/07/31 00:32:10;;;;;;;0.50;0.50;;;11.90;99.90;;;;;;5074233;28;20197;-74
2023/07/31 00:34:37;;;;;;;0.50;0.50;;;11.90;99.90;;;;;;5074245;28;20714;-74
2023/07/31 00:37:04;;;;;;;0.85;0.75;;;11.80;99.90;;;;;;5074209;28;20533;-74
2023/07/31 00:39:30;;;;;;;0.80;0.77;;;11.80;99.90;;;;;;5073921;28;20192;-74
2023/07/31 00:41:56;;;;;;;0.82;0.68;;;11.80;99.90;;;;;;5056206;28;20279;-74
2023/07/31 00:44:22;;;;;;;0.50;0.50;;;11.80;99.90;;;;;;5073812;28;20597;-74
2023/07/31 00:46:48;;;;;;;0.43;0.43;;;11.80;99.90;;;;;;5074039;28;20189;-74
2023/07/31 00:49:14;;;;;;;0.50;0.50;;;11.80;99.90;;;;;;5073877;28;20188;-74
2023/07/31 00:51:40;;;;;;;0.60;0.60;;;11.80;99.90;;;;;;5073653;28;20207;-74
2023/07/31 00:54:06;;;;;;;0.50;0.50;;;11.80;99.90;;;;;;5073585;28;20184;-74
2023/07/31 00:56:32;;;;;;;0.68;0.68;;;11.90;99.90;;;;;;5072192;28;20240;-74
2023/07/31 00:58:58;;;;;;;0.40;0.40;;;11.90;99.90;;;;;;5073660;28;20262;-74
2023/07/31 01:01:24;;;;;;;0.70;0.70;;;11.90;99.90;;;;;;5070220;23;20236;-82
2023/07/31 01:03:55;;;;;;;0.65;0.65;;;11.80;99.90;;;;;;5072624;28;20216;-82
2023/07/31 01:06:24;;;;;;;0.52;0.52;;;11.90;99.90;;;;;;5060050;28;20197;-81
2023/07/31 01:09:08;;;;;;;0.45;0.45;;;11.90;99.90;;;;;;5052073;28;20751;-82
2023/07/31 01:11:42;;;;;;;0.65;0.57;;;11.90;99.90;;;;;;5068660;28;20572;-82
2023/07/31 01:14:08;;;;;;;0.60;0.60;;;11.90;99.90;;;;;;5053404;28;20620;-82
2023/07/31 01:16:34;;;;;;;0.50;0.50;;;12.00;99.90;;;;;;5049019;28;20307;-81
2023/07/31 01:19:00;;;;;;;0.60;0.60;;;12.00;99.90;;;;;;5031932;28;20205;-81
2023/07/31 01:21:47;;;;;;;0.50;0.50;;;12.00;99.90;;;;;;5068147;28;20259;-82
2023/07/31 01:24:35;;;;;;;0.50;0.50;;;12.00;99.90;;;;;;5052327;28;20193;-82
2023/07/31 01:27:15;;;;;;;0.60;0.60;;;12.10;99.90;;;;;;5052140;28;20221;-82
2023/07/31 01:29:41;;;;;;;0.57;0.57;;;12.10;99.90;;;;;;5051625;28;20194;-82
2023/07/31 01:32:09;;;;;;;0.50;0.50;;;12.10;99.90;;;;;;5051699;28;20216;-82
2023/07/31 01:34:36;;;;;;;0.65;0.65;;;12.00;99.90;;;;;;5052744;28;20193;-82
2023/07/31 01:37:03;;;;;;;0.43;0.43;;;12.00;99.90;;;;;;5051650;28;20193;-83
2023/07/31 01:39:28;;;;;;;0.70;0.70;;;11.90;99.90;;;;;;5052656;28;20555;-82
2023/07/31 01:41:54;;;;;;;0.50;0.50;;;11.80;99.90;;;;;;5051706;28;20228;-82
2023/07/31 01:44:20;;;;;;;0.50;0.50;;;11.80;99.90;;;;;;5051290;28;20595;-82
2023/07/31 01:46:46;;;;;;;0.57;0.57;;;11.70;99.90;;;;;;5051586;28;20201;-82
2023/07/31 01:49:11;;;;;;;0.50;0.50;;;11.60;99.90;;;;;;5051177;28;20540;-82
2023/07/31 01:51:37;;;;;;;0.75;0.75;;;11.60;99.90;;;;;;5051266;28;20204;-82
2023/07/31 01:54:03;;;;;;;0.55;0.55;;;11.50;99.90;;;;;;5051525;28;20197;-82
2023/07/31 01:56:29;;;;;;;1.33;0.98;;;11.50;99.90;;;;;;5052706;28;20220;-82
2023/07/31 01:58:54;;;;;;;0.50;0.50;;;11.40;99.90;;;;;;5051156;28;20604;-82
2023/07/31 02:01:20;;;;;;;0.50;0.50;;;11.40;99.90;;;;;;5053874;28;20264;-82
2023/07/31 02:03:46;;;;;;;1.15;1.05;;;11.40;99.90;;;;;;5054664;28;20678;-82
2023/07/31 02:06:12;;;;;;;0.43;0.43;;;11.40;99.90;;;;;;5054497;28;20277;-82
2023/07/31 02:08:37;;;;;;;0.50;0.50;;;11.40;99.90;;;;;;5053873;28;20589;-86
2023/07/31 02:11:03;;;;;;;0.47;0.47;;;11.40;99.90;;;;;;5054536;28;20204;-85
2023/07/31 02:13:29;;;;;;;0.43;0.43;;;11.40;99.90;;;;;;5054121;28;20258;-85
2023/07/31 02:15:55;;;;;;;0.60;0.60;;;11.40;99.90;;;;;;5039943;28;20213;-84
2023/07/31 02:18:22;;;;;;;0.70;0.70;;;11.40;99.90;;;;;;5034420;28;20198;-84
2023/07/31 02:20:51;;;;;;;0.60;0.60;;;11.40;99.90;;;;;;5034587;28;20649;-85
2023/07/31 02:23:18;;;;;;;0.50;0.50;;;11.40;99.90;;;;;;5051105;28;20221;-85
2023/07/31 02:25:45;;;;;;;0.55;0.55;;;11.50;99.90;;;;;;5034846;28;20208;-86
2023/07/31 02:28:11;;;;;;;0.60;0.60;;;11.50;99.90;;;;;;5034602;28;20197;-85
2023/07/31 02:30:36;;;;;;;0.60;0.60;;;11.50;99.90;;;;;;5052169;28;20190;-85
2023/07/31 02:33:02;;;;;;;0.50;0.50;;;11.50;99.90;;;;;;5034429;28;20205;-86
2023/07/31 02:35:28;;;;;;;0.50;0.50;;;11.50;99.90;;;;;;5034082;28;20209;-85
2023/07/31 02:37:54;;;;;;;0.50;0.50;;;11.60;99.90;;;;;;5034453;28;20190;-85
2023/07/31 02:40:19;;;;;;;0.40;0.40;;;11.60;99.90;;;;;;5050926;28;20200;-85
2023/07/31 02:42:45;;;;;;;0.50;0.50;;;11.60;99.90;;;;;;5034276;28;20196;-85
2023/07/31 02:45:11;;;;;;;0.50;0.50;;;11.60;99.90;;;;;;5034976;28;20197;-84
2023/07/31 02:47:36;;;;;;;0.60;0.60;;;11.60;99.90;;;;;;5070901;28;20241;-84
2023/07/31 02:50:03;;;;;;;0.60;0.60;;;11.60;99.90;;;;;;5070842;28;20204;-85
2023/07/31 02:52:29;;;;;;;0.50;0.50;;;11.60;99.90;;;;;;5071728;28;20192;-81
2023/07/31 02:54:55;;;;;;;1.00;0.98;;;11.60;99.90;;;;;;5070521;28;20208;-84
2023/07/31 02:57:20;;;;;;;0.40;0.40;;;11.70;99.90;;;;;;5053953;28;20204;-85
2023/07/31 02:59:46;;;;;;;0.65;0.65;;;11.70;99.90;;;;;;5071912;28;20201;-85
2023/07/31 03:02:12;;;;;;;0.80;0.80;;;11.80;99.90;;;;;;5045111;28;20709;-86
2023/07/31 03:04:38;;;;;;;0.60;0.60;;;11.70;99.90;;;;;;5065825;28;20197;-85
2023/07/31 03:07:05;;;;;;;0.50;0.50;;;11.80;99.90;;;;;;5053708;28;20222;-85
2023/07/31 03:09:30;;;;;;;0.50;0.50;;;11.80;99.90;;;;;;5053574;28;20188;-84
2023/07/31 03:11:56;;;;;;;0.50;0.50;;;11.80;99.90;;;;;;5053945;28;20201;-85
2023/07/31 03:14:22;;;;;;;0.50;0.50;;;11.80;99.90;;;;;;5071540;28;20268;-85
2023/07/31 03:16:48;;;;;;;0.50;0.50;;;11.80;99.90;;;;;;5053677;28;20213;-85
2023/07/31 03:19:14;;;;;;;0.50;0.50;;;11.90;99.90;;;;;;5055443;28;20954;-80
2023/07/31 03:21:40;;;;;;;0.40;0.40;;;11.90;99.90;;;;;;5073966;28;20295;-80
2023/07/31 03:24:06;;;;;;;0.85;0.70;;;11.90;99.90;;;;;;5075391;28;20185;-80
2023/07/31 03:26:32;;;;;;;0.40;0.40;;;12.00;99.90;;;;;;5057205;28;20204;-80
2023/07/31 03:28:58;;;;;;;1.08;1.05;;;12.00;99.90;;;;;;5057506;28;20232;-80
2023/07/31 03:31:24;;;;;;;0.50;0.50;;;12.10;99.90;;;;;;5057049;28;20231;-80
2023/07/31 03:33:49;;;;;;;0.73;0.73;;;12.10;99.90;;;;;;5057237;28;20228;-80
2023/07/31 03:36:15;;;;;;;0.40;0.40;;;12.20;99.90;;;;;;5075186;28;20200;-80
2023/07/31 03:38:41;;;;;;;0.50;0.50;;;12.20;99.90;;;;;;5057197;28;20197;-82
2023/07/31 03:41:07;;;;;;;0.50;0.50;;;12.20;99.90;;;;;;5057196;28;20686;-80
2023/07/31 03:43:36;;;;;;;0.60;0.60;;;12.20;99.90;;;;;;5056755;28;20659;-80
2023/07/31 03:46:02;;;;;;;0.50;0.50;;;12.30;99.90;;;;;;5057131;28;20311;-80
2023/07/31 03:48:28;;;;;;;0.40;0.40;;;12.40;99.90;;;;;;5056822;28;20571;-80
2023/07/31 03:50:55;;;;;;;0.70;0.70;;;12.40;99.90;;;;;;5057110;28;20292;-80
2023/07/31 03:53:20;;;;;;;0.70;0.70;;;12.50;99.90;;;;;;5056721;28;20231;-80
2023/07/31 03:55:46;;;;;;;0.50;0.50;;;12.60;99.90;;;;;;5056854;28;20220;-80
2023/07/31 03:58:12;;;;;;;0.50;0.50;;;12.70;99.90;;;;;;5074652;28;20192;-80
2023/07/31 04:00:39;;;;;;;0.55;0.55;;;12.70;99.90;;;;;;5053340;28;20233;-80
2023/07/31 04:03:05;;;;;;;0.40;0.40;;;12.80;99.90;;;;;;5036750;28;20263;-80
2023/07/31 04:05:32;;;;;;;0.60;0.60;;;12.90;99.90;;;;;;5054343;28;20193;-80
2023/07/31 04:07:58;;;;;;;0.80;0.80;;;12.90;99.90;;;;;;5036733;28;20198;-80
2023/07/31 04:10:24;;;;;;;0.55;0.43;;;13.00;99.90;;;;;;5036496;28;20617;-80
2023/07/31 04:12:49;;;;;;;0.40;0.40;;;13.10;99.90;;;;;;5054475;28;20745;-80
2023/07/31 04:15:15;;;;;;;0.40;0.40;;;13.20;99.90;;;;;;5036546;28;20221;-80
2023/07/31 04:17:41;;;;;;;0.77;0.77;;;13.30;99.90;;;;;;5036473;28;20557;-80
2023/07/31 04:20:07;;;;;;;0.50;0.50;;;13.30;99.90;;;;;;5054347;28;20590;-80
2023/07/31 04:22:33;;;;;;;0.40;0.40;;;13.40;99.90;;;;;;5036276;28;20714;-80
2023/07/31 04:24:59;;;;;;;0.40;0.40;;;13.50;99.90;;;;;;5054295;28;20221;-80
2023/07/31 04:27:25;;;;;;;0.50;0.50;;;13.60;99.90;;;;;;5036080;28;20200;-80
2023/07/31 04:29:51;;;;;;;0.60;0.60;;;13.60;99.90;;;;;;5054371;28;20673;-82
2023/07/31 04:32:16;;;;;;;0.73;0.73;;;13.60;99.90;;;;;;5053720;28;20198;-81
2023/07/31 04:34:43;;;;;;;0.47;0.47;;;13.60;99.90;;;;;;5035779;28;20568;-82
2023/07/31 04:37:09;;;;;;;1.67;0.95;;;13.70;99.90;;;;;;5036081;28;20324;-81
2023/07/31 04:39:34;;;;;;;0.40;0.40;;;13.70;99.90;;;;;;5035690;28;20628;-81
2023/07/31 04:42:00;;;;;;;0.40;0.40;;;13.70;99.90;;;;;;5036045;28;20233;-82
2023/07/31 04:44:26;;;;;;;0.40;0.40;;;13.80;99.90;;;;;;5035840;28;20247;-81
2023/07/31 04:46:51;;;;;;;0.75;0.75;;;13.90;99.90;;;;;;5036113;28;20205;-81
2023/07/31 04:49:17;;;;;;;0.60;0.60;;;13.90;99.90;;;;;;5053964;28;20248;-81
2023/07/31 04:51:43;;;;;;;0.50;0.50;;;14.00;99.90;;;;;;5035676;28;20194;-81
2023/07/31 04:54:08;;;;;;;0.40;0.40;;;14.10;99.90;;;;;;5053749;28;20208;-81
2023/07/31 04:56:34;;;;;;;0.50;0.50;;;14.20;99.90;;;;;;5035603;28;20247;-81
2023/07/31 04:59:00;;;;;;;0.50;0.50;;;14.30;99.90;;;;;;5052536;28;20193;-82
2023/07/31 05:01:26;;;;;;;0.40;0.40;;;14.40;99.90;;;;;;5035139;28;20229;-81
2023/07/31 05:03:51;;;;;;;0.57;0.57;;;14.50;99.90;;;;;;5035783;28;20694;-81
2023/07/31 05:06:17;;;;;;;0.40;0.40;;;14.60;99.90;;;;;;5052061;28;20205;-81
2023/07/31 05:08:43;;;;;;;0.40;0.40;;;14.90;99.90;;;;;;5035604;28;20244;-82
2023/07/31 05:11:08;;;;;;;0.50;0.50;;;15.00;99.90;;;;;;5053449;28;20269;-81
2023/07/31 05:13:34;;;;;;;0.50;0.50;;;15.30;99.90;;;;;;5053100;28;20247;-81
2023/07/31 05:16:00;;;;;;;0.60;0.60;;;15.50;99.90;;;;;;5052005;28;20672;-81
2023/07/31 05:18:25;;;;;;;0.52;0.52;;;15.70;99.90;;;;;;5053127;28;20190;-81
2023/07/31 05:20:51;;;;;;;0.30;0.30;;;15.90;99.90;;;;;;5053209;28;20690;-83
2023/07/31 05:23:17;;;;;;;0.40;0.40;;;16.20;99.90;;;;;;5035316;28;20266;-81
2023/07/31 05:25:42;;;;;;;0.63;0.60;;;16.40;99.90;;;;;;5053009;28;20230;-81
2023/07/31 05:28:08;;;;;;;0.30;0.30;;;16.50;99.90;;;;;;5035565;28;20201;-81
2023/07/31 05:30:34;;;;;;;0.68;0.63;;;16.70;99.90;;;;;;5034839;28;20607;-81
2023/07/31 05:32:59;;;;;;;3.88;0.98;;;16.80;99.90;;;;;;5053096;28;20190;-81
2023/07/31 05:35:25;;;;;;;0.60;0.60;;;16.80;99.90;;;;;;5052472;28;20209;-81
2023/07/31 05:37:51;;;;;;;0.60;0.60;;;16.70;99.90;;;;;;5052814;28;20189;-81
2023/07/31 05:40:17;;;;;;;0.40;0.40;;;16.50;99.90;;;;;;5051794;28;20624;-83
2023/07/31 05:42:42;;;;;;;0.63;0.63;;;16.50;99.90;;;;;;5050563;28;20202;-84
2023/07/31 05:45:09;;;;;;;0.88;0.88;;;16.40;99.90;;;;;;5034307;28;20207;-83
2023/07/31 05:47:35;;;;;;;0.40;0.40;;;16.40;99.90;;;;;;5052634;28;20247;-83
2023/07/31 05:50:01;;;;;;;0.30;0.30;;;16.20;99.90;;;;;;5051095;28;20606;-83
2023/07/31 05:52:28;;;;;;;0.30;0.30;;;16.10;99.90;;;;;;5031251;28;20281;-83
2023/07/31 05:54:54;;;;;;;0.60;0.60;;;16.10;99.90;;;;;;5032637;28;20187;-83
2023/07/31 05:57:20;;;;;;;0.88;0.75;;;16.10;99.90;;;;;;5032376;28;20591;-83
2023/07/31 05:59:46;;;;;;;0.40;0.40;;;16.00;99.90;;;;;;5031350;28;20255;-83
2023/07/31 06:02:11;;;;;;;3.95;0.75;;;16.00;99.90;;;;;;5014470;28;20278;-83
2023/07/31 06:04:37;;;;;;;0.50;0.50;;;15.80;99.90;;;;;;5031256;28;20198;-83
2023/07/31 06:07:03;;;;;;;0.40;0.40;;;15.90;99.90;;;;;;5031989;28;20205;-83
2023/07/31 06:09:29;;;;;;;0.40;0.40;;;15.90;99.90;;;;;;5034241;28;20660;-83
2023/07/31 06:11:55;;;;;;;1.17;0.52;;;16.00;99.90;;;;;;5052313;28;20232;-84
2023/07/31 06:14:20;;;;;;;0.50;0.50;;;16.20;99.90;;;;;;5052163;28;20204;-83
2023/07/31 06:16:46;;;;;;;0.50;0.50;;;16.30;99.90;;;;;;5052217;28;20209;-83
2023/07/31 06:19:12;;;;;;;0.38;0.38;;;16.30;99.90;;;;;;5052363;28;20295;-83
2023/07/31 06:21:38;;;;;;;1.55;0.63;;;16.40;99.90;;;;;;5052214;28;20208;-87
2023/07/31 06:24:08;;;;;;;0.43;0.43;;;16.40;99.90;;;;;;5052313;28;20217;-87
2023/07/31 06:26:33;;;;;;;0.52;0.52;;;16.40;99.90;;;;;;5034701;28;20197;-88
2023/07/31 06:28:59;;;;;;;0.40;0.40;;;16.60;99.90;;;;;;5052305;28;20194;-88
2023/07/31 06:31:25;;;;;;;0.60;0.60;;;16.90;99.90;;;;;;5051855;28;20220;-87
2023/07/31 06:33:54;;;;;;;0.60;0.60;;;17.20;99.90;;;;;;5052271;28;20193;-88
2023/07/31 06:36:19;;;;;;;0.38;0.38;;;17.70;99.90;;;;;;5034147;28;20691;-88
2023/07/31 06:38:45;;;;;;;1.65;0.93;;;17.90;99.90;;;;;;5034540;28;20197;-86
2023/07/31 06:41:11;;;;;;;2.80;1.55;;;17.80;99.90;;;;;;5034565;28;20201;-88
2023/07/31 06:43:37;;;;;;;0.50;0.45;;;17.40;99.90;;;;;;5034117;28;20229;-88
2023/07/31 06:46:07;;;;;;;0.68;0.68;;;17.20;99.90;;;;;;5052155;28;20228;-88
2023/07/31 06:48:33;;;;;;;1.20;1.10;;;17.20;99.90;;;;;;5051783;28;20546;-88
2023/07/31 06:51:00;;;;;;;1.95;1.05;;;17.40;99.90;;;;;;5052075;28;20201;-87
2023/07/31 06:53:26;;;;;;;0.40;0.40;;;17.40;99.90;;;;;;5052470;28;20229;-86
2023/07/31 06:55:52;;;;;;;0.30;0.30;;;17.20;99.90;;;;;;5038170;28;20236;-88
2023/07/31 06:58:18;;;;;;;0.40;0.40;;;17.10;99.90;;;;;;5038044;28;20740;-88
2023/07/31 07:00:43;;;;;;;0.40;0.40;;;17.00;99.90;;;;;;5055725;28;20229;-88
2023/07/31 07:03:09;;;;;;;0.57;0.57;;;16.90;99.90;;;;;;5055863;28;20717;-88
2023/07/31 07:05:35;;;;;;;1.50;0.80;;;16.90;99.90;;;;;;5037606;28;20221;-87
2023/07/31 07:08:01;;;;;;;0.85;0.70;;;16.90;99.90;;;;;;5055825;28;20747;-85
2023/07/31 07:10:26;;;;;;;6.57;0.90;;;16.80;99.90;;;;;;5037795;28;20296;-83
2023/07/31 07:12:53;;;;;;;0.32;0.32;;;16.70;99.90;;;;;;5035840;28;20198;-85
2023/07/31 07:15:18;;;;;;;0.30;0.30;;;16.60;99.90;;;;;;5034256;28;20210;-84
2023/07/31 07:17:44;;;;;;;0.43;0.43;;;16.50;99.90;;;;;;5034035;28;20198;-84
2023/07/31 07:20:10;;;;;;;2.15;0.57;;;16.40;99.90;;;;;;5018170;28;20289;-85
2023/07/31 07:22:36;;;;;;;0.30;0.30;;;16.30;99.90;;;;;;5034144;28;20623;-84
2023/07/31 07:25:02;;;;;;;0.50;0.40;;;16.30;99.90;;;;;;5035418;28;20197;-83
2023/07/31 07:27:28;;;;;;;0.50;0.50;;;16.40;99.90;;;;;;5043356;28;20185;-84
2023/07/31 07:29:54;;;;;;;0.40;0.40;;;16.50;99.90;;;;;;5037429;28;20244;-85
2023/07/31 07:32:20;;;;;;;0.80;0.57;;;16.90;99.90;;;;;;5037480;28;20202;-85
2023/07/31 07:34:47;;;;;;;0.30;0.30;;;17.30;99.90;;;;;;5037356;28;20664;-86
2023/07/31 07:37:13;;;;;;;0.30;0.30;;;17.80;99.90;;;;;;5055598;28;20644;-87
2023/07/31 07:39:39;;;;;;;0.45;0.45;;;18.30;99.90;;;;;;5037655;28;20210;-86
2023/07/31 07:42:05;;;;;;;0.38;0.38;;;18.40;99.90;;;;;;5037180;28;20552;-86
2023/07/31 07:44:30;;;;;;;0.30;0.30;;;18.60;99.90;;;;;;5037135;28;20252;-87
2023/07/31 07:46:56;;;;;;;0.50;0.50;;;18.90;99.90;;;;;;5055428;28;20225;-89
2023/07/31 07:49:22;;;;;;;0.20;0.20;;;19.20;99.90;;;;;;5036792;28;20201;-87
2023/07/31 07:51:48;;;;;;;0.30;0.30;;;19.30;99.90;;;;;;5054971;28;20248;-86
2023/07/31 07:54:14;;;;;;;0.60;0.57;;;19.30;99.90;;;;;;5055091;28;20189;-87
2023/07/31 07:56:40;;;;;;;1.73;0.98;;;19.20;99.90;;;;;;5036613;28;20220;-87
2023/07/31 07:59:05;;;;;;;0.55;0.55;;;19.10;99.90;;;;;;5054750;28;20232;-87
2023/07/31 08:01:31;;;;;;;0.25;0.25;;;19.10;99.90;;;;;;5054553;28;20240;-83
2023/07/31 08:03:58;;;;;;;0.38;0.38;;;18.90;99.90;;;;;;5037128;28;20200;-83
2023/07/31 08:06:24;;;;;;;0.30;0.30;;;18.80;99.90;;;;;;5035543;28;20291;-84
2023/07/31 08:08:49;;;;;;;0.22;0.22;;;18.70;99.90;;;;;;5033151;28;20776;-84
2023/07/31 08:11:15;;;;;;;0.35;0.30;;;18.80;99.90;;;;;;5034643;28;20198;-83
2023/07/31 08:13:41;;;;;;;0.20;0.20;;;18.90;99.90;;;;;;5034404;28;20214;-85
2023/07/31 08:16:10;;;;;;;0.40;0.40;;;19.20;99.90;;;;;;5016812;28;20564;-84
2023/07/31 08:18:36;;;;;;;0.20;0.20;;;19.40;99.90;;;;;;5053026;28;20770;-84
2023/07/31 08:21:02;;;;;;;0.47;0.47;;;19.50;99.90;;;;;;5036398;28;20205;-84
2023/07/31 08:23:28;;;;;;;0.20;0.20;;;19.60;99.90;;;;;;5054032;28;20197;-85
2023/07/31 08:25:54;;;;;;;0.45;0.45;;;19.70;99.90;;;;;;5053022;28;20219;-84
2023/07/31 08:28:20;;;;;;;0.30;0.30;;;19.90;99.90;;;;;;5053988;28;20193;-84
2023/07/31 08:30:45;;;;;;;0.20;0.20;;;19.70;99.90;;;;;;5052981;28;20201;-84
2023/07/31 08:33:11;;;;;;;0.20;0.20;;;19.80;99.90;;;;;;5053146;28;20634;-84
2023/07/31 08:35:37;;;;;;;0.30;0.30;;;19.80;99.90;;;;;;5052479;28;20209;-85
2023/07/31 08:38:03;;;;;;;0.40;0.40;;;20.00;99.90;;;;;;5052881;28;20281;-85
2023/07/31 08:40:29;;;;;;;0.20;0.20;;;20.30;99.90;;;;;;5035859;28;20657;-84
2023/07/31 08:43:02;;;;;;;0.30;0.30;;;20.40;99.90;;;;;;5053960;28;20188;-84
2023/07/31 08:45:28;;;;;;;0.20;0.20;;;19.80;99.90;;;;;;5054021;28;20190;-85
2023/07/31 08:47:56;;;;;;;0.30;0.30;;;19.60;99.90;;;;;;5053918;28;20193;-84
2023/07/31 08:50:22;;;;;;;0.20;0.20;;;20.00;99.90;;;;;;5035632;28;20201;-84
2023/07/31 08:52:49;;;;;;;0.22;0.22;;;20.20;99.90;;;;;;5053902;28;20235;-84
2023/07/31 08:55:15;;;;;;;0.15;0.15;;;20.10;99.90;;;;;;5053710;28;20273;-84
2023/07/31 08:57:42;;;;;;;0.20;0.20;;;19.90;99.90;;;;;;5053465;28;20193;-85
2023/07/31 09:00:10;;;;;;;0.20;0.20;;;19.90;99.90;;;;;;5035649;28;20220;-84
2023/07/31 09:02:51;;;;;;;0.57;0.57;;;20.20;99.90;;;;;;5051272;28;20233;-85
2023/07/31 09:05:18;;;;;;;0.20;0.20;;;20.20;99.90;;;;;;5053358;28;20599;-85
2023/07/31 09:07:47;;;;;;;0.93;0.50;;;20.40;99.90;;;;;;5053599;28;20565;-85
2023/07/31 09:10:13;;;;;;;0.25;0.25;;;20.30;99.90;;;;;;5053511;28;20680;-81
2023/07/31 09:12:39;;;;;;;1.95;0.93;;;20.10;99.90;;;;;;5052021;28;20621;-81
2023/07/31 09:15:06;;;;;;;0.20;0.20;;;19.80;99.90;;;;;;5051896;28;20198;-81
2023/07/31 09:17:33;;;;;;;0.45;0.45;;;19.50;99.90;;;;;;5051665;28;20197;-81
2023/07/31 09:20:14;;;;;;;0.20;0.20;;;19.40;99.90;;;;;;5052335;28;20196;-81
2023/07/31 09:22:39;;;;;;;0.30;0.30;;;19.40;99.90;;;;;;5051629;28;20255;-81
2023/07/31 09:25:17;;;;;;;2.80;0.68;;;19.30;99.90;;;;;;5068490;28;20189;-81
2023/07/31 09:27:50;;;;;;;0.30;0.30;;;19.30;99.90;;;;;;5068453;28;20271;-80
2023/07/31 09:30:17;;;;;;;0.30;0.30;;;19.20;99.90;;;;;;5068590;28;20193;-81
2023/07/31 09:32:44;;;;;;;0.20;0.20;;;19.40;99.90;;;;;;5053189;28;20186;-81
2023/07/31 09:35:14;;;;;;;0.30;0.30;;;19.70;99.90;;;;;;5052952;28;20658;-81
2023/07/31 09:37:39;;;;;;;0.32;0.32;;;20.00;99.90;;;;;;5051418;28;20201;-81
2023/07/31 09:40:06;;;;;;;0.40;0.40;;;20.60;99.90;;;;;;5068278;28;20193;-81
2023/07/31 09:42:34;;;;;;;0.22;0.22;;;21.20;99.90;;;;;;5051547;28;20323;-81
2023/07/31 09:45:10;;;;;;;0.20;0.20;;;21.50;99.90;;;;;;5068189;28;20196;-81
2023/07/31 09:47:36;;;;;;;0.20;0.20;;;21.40;99.90;;;;;;5068044;28;20193;-81
2023/07/31 09:50:07;;;;;;;0.52;0.50;;;21.60;99.90;;;;;;5052710;28;20263;-81
2023/07/31 09:52:32;;;;;;;0.60;0.40;;;21.80;99.90;;;;;;5067959;28;20726;-81
2023/07/31 09:54:58;;;;;;;0.20;0.20;;;21.30;99.90;;;;;;5068087;28;20205;-81
2023/07/31 09:57:25;;;;;;;0.20;0.20;;;21.10;99.90;;;;;;5052440;28;20198;-81
2023/07/31 09:59:52;;;;;;;0.30;0.30;;;21.20;99.90;;;;;;5067707;28;20226;-81
2023/07/31 10:02:22;;;;;;;3.50;0.45;;;21.20;99.90;;;;;;5069225;28;20311;-81
2023/07/31 10:04:50;;;;;;;1.23;0.77;;;21.30;99.90;;;;;;5072610;28;20192;-81
2023/07/31 10:07:18;;;;;;;0.20;0.20;;;20.90;99.90;;;;;;5054265;28;20287;-81
2023/07/31 10:09:45;;;;;;;0.40;0.40;;;20.60;99.90;;;;;;5054499;28;20212;-81
2023/07/31 10:12:14;;;;;;;0.30;0.30;;;20.40;99.90;;;;;;5072450;28;20276;-81
2023/07/31 10:14:41;;;;;;;0.60;0.60;;;20.30;99.90;;;;;;5054328;28;20209;-81
2023/07/31 10:17:08;;;;;;;2.92;1.08;;;20.20;99.90;;;;;;5054262;28;20201;-81
2023/07/31 10:19:35;;;;;;;0.20;0.20;;;20.10;99.90;;;;;;5072121;28;20185;-81
2023/07/31 10:22:03;;;;;;;0.30;0.30;;;20.00;99.90;;;;;;5054583;28;20196;-79
2023/07/31 10:24:30;;;;;;;0.30;0.30;;;20.10;99.90;;;;;;5072066;28;20201;-79
2023/07/31 10:26:59;;;;;;;0.22;0.22;;;20.40;99.90;;;;;;5054396;28;20201;-80
2023/07/31 10:29:26;;;;;;;0.20;0.20;;;20.60;99.90;;;;;;5071561;28;20678;-82
2023/07/31 10:31:53;;;;;;;0.20;0.20;;;21.30;99.90;;;;;;5054179;28;20224;-79
2023/07/31 10:34:19;;;;;;;0.20;0.20;;;21.80;99.90;;;;;;5054164;28;20569;-81
2023/07/31 10:36:45;;;;;;;0.38;0.38;;;22.00;99.90;;;;;;5072034;28;20209;-80
2023/07/31 10:39:35;;;;;;;0.30;0.30;;;22.50;99.90;;;;;;5054237;28;20192;-79
2023/07/31 10:42:10;;;;;;;0.30;0.30;;;22.80;99.90;;;;;;5072181;28;20200;-79
2023/07/31 10:44:36;;;;;;;0.20;0.20;;;22.00;99.90;;;;;;5071995;28;20188;-79
2023/07/31 10:47:01;;;;;;;0.40;0.40;;;21.80;99.90;;;;;;5053961;28;20287;-80
2023/07/31 10:49:31;;;;;;;0.25;0.25;;;21.50;99.90;;;;;;5053826;28;20200;-79
2023/07/31 10:51:57;;;;;;;0.25;0.25;;;21.20;99.90;;;;;;5054172;28;20208;-79
2023/07/31 10:54:23;;;;;;;0.30;0.30;;;21.20;99.90;;;;;;5071828;28;20197;-79
2023/07/31 10:56:52;;;;;;;0.20;0.20;;;20.80;99.90;;;;;;5053812;28;20283;-79
2023/07/31 10:59:20;;;;;;;0.25;0.25;;;20.60;99.90;;;;;;5053826;28;20203;-79
2023/07/31 11:01:53;;;;;;;0.10;0.10;;;20.70;99.90;;;;;;5071422;28;20679;-79
2023/07/31 11:04:24;;;;;;;0.50;0.40;;;20.40;99.90;;;;;;5070601;28;20201;-80
2023/07/31 11:07:01;;;;;;;0.30;0.30;;;21.30;99.90;;;;;;5054668;28;20212;-79
2023/07/31 11:09:32;;;;;;;0.22;0.22;;;22.50;99.90;;;;;;5051641;28;20692;-79
2023/07/31 11:11:58;;;;;;;0.30;0.30;;;23.20;99.90;;;;;;5050616;28;20197;-79
2023/07/31 11:14:24;;;;;;;1.20;0.38;;;23.80;99.90;;;;;;5050264;28;20212;-79
2023/07/31 11:16:51;;;;;;;0.20;0.20;;;24.50;99.90;;;;;;5051731;28;20516;-79
2023/07/31 11:19:24;;;;;;;0.20;0.20;;;25.00;99.90;;;;;;5047937;28;20201;-82
2023/07/31 11:21:53;;;;;;;0.10;0.10;;;24.60;99.90;;;;;;5031794;28;20225;-80
2023/07/31 11:24:19;;;;;;;2.67;0.50;;;24.90;99.90;;;;;;5047048;28;20726;-80
2023/07/31 11:26:53;;;;;;;0.15;0.15;;;25.40;99.90;;;;;;5030871;28;20198;-80
2023/07/31 11:29:19;;;;;;;0.20;0.20;;;25.50;99.90;;;;;;5061867;28;20213;-80
2023/07/31 11:31:47;;;;;;;0.32;0.32;;;25.10;99.90;;;;;;5051996;28;20276;-91
2023/07/31 11:34:13;;;;;;;0.17;0.17;;;24.70;99.90;;;;;;5068087;28;20669;-91
2023/07/31 11:36:39;;;;;;;0.20;0.20;;;25.30;99.90;;;;;;5067745;28;20220;-91
2023/07/31 11:39:13;;;;;;;0.25;0.25;;;25.70;99.90;;;;;;5052718;28;20204;-92
2023/07/31 11:41:41;;;;;;;0.57;0.25;;;25.70;99.90;;;;;;5054684;28;21273;-92
2023/07/31 11:44:07;;;;;;;30.02;0.40;;;25.40;99.90;;;;;;5071884;28;20601;-92
2023/07/31 11:46:33;;;;;;;0.40;0.40;;;25.00;99.90;;;;;;5071771;28;20247;-91
2023/07/31 11:49:01;;;;;;;0.20;0.20;;;25.30;99.90;;;;;;5056238;28;20185;-92
2023/07/31 11:51:29;;;;;;;0.30;0.30;;;25.00;99.90;;;;;;5055855;28;20189;-91
2023/07/31 11:53:58;;;;;;;0.25;0.25;;;25.20;99.90;;;;;;5056126;28;20189;-92
2023/07/31 11:56:25;;;;;;;0.30;0.30;;;25.30;99.90;;;;;;5054443;28;20220;-91
2023/07/31 11:58:57;;;;;;;1.02;0.30;;;25.00;99.90;;;;;;5055044;28;20236;-92
2023/07/31 12:01:23;;;;;;;0.30;0.30;;;25.60;99.90;;;;;;5062787;28;20243;-90
2023/07/31 12:03:50;;;;;;;0.20;0.20;;;25.60;99.90;;;;;;5057573;28;20582;-92
2023/07/31 12:06:16;;;;;;;0.82;0.45;;;25.40;99.90;;;;;;5075407;28;20255;-91
2023/07/31 12:08:44;;;;;;;0.15;0.15;;;25.80;99.90;;;;;;5075468;28;20631;-91
2023/07/31 12:11:10;;;;;;;0.45;0.28;;;26.20;99.90;;;;;;5075595;28;20335;-92
2023/07/31 12:13:36;;;;;;;0.95;0.75;;;26.20;99.90;;;;;;5075433;28;20220;-92
2023/07/31 12:16:04;;;;;;;0.40;0.40;;;26.10;99.90;;;;;;5075830;28;20760;-92
2023/07/31 12:18:35;;;;;;;0.10;0.10;;;26.00;99.90;;;;;;5074253;28;20685;-92
2023/07/31 12:21:03;;;;;;;0.10;0.10;;;26.30;99.90;;;;;;5074989;28;20195;-93
2023/07/31 12:23:31;;;;;;;0.13;0.13;;;26.60;99.90;;;;;;5058033;28;20196;-94
2023/07/31 12:26:20;;;;;;;0.10;0.10;;;26.60;99.90;;;;;;5075669;28;20196;-94
2023/07/31 12:28:49;;;;;;;0.20;0.20;;;26.90;99.90;;;;;;5062594;28;20671;-93
2023/07/31 12:31:20;;;;;;;0.63;0.20;;;26.10;99.50;;;;;;5057853;28;20284;-90
2023/07/31 12:33:47;;;;;;;0.20;0.20;;;25.60;99.90;;;;;;5057358;28;20200;-90
2023/07/31 12:36:15;;;;;;;0.22;0.22;;;24.40;99.90;;;;;;5075904;28;20210;-89
2023/07/31 12:38:41;;;;;;;0.20;0.20;;;23.70;99.90;;;;;;5057715;28;20199;-92
2023/07/31 12:41:07;;;;;;;0.15;0.15;;;23.10;99.90;;;;;;5075231;28;20196;-85
2023/07/31 12:43:37;;;;;;;0.35;0.35;;;23.00;99.90;;;;;;5073771;28;20189;-85
2023/07/31 12:46:04;;;;;;;0.17;0.17;;;22.40;99.90;;;;;;5073926;28;20275;-85